West Point, IA (52656)

4:29 PM CST on December 18, 2014 (GMT -0600)
Lang Enterprises | Change Station
CLOSE
Current Station
Personal Weather Station
Location: Donnellson, IA
Elevation: 689 ft
Nearby Weather Stations

Elev 689 ft 40.68 °N, 91.57 °W | Updated 1 minute ago

Overcast
Overcast
27.4 °F
Feels Like 27 °F
N
1.0
Wind Variable Wind from NNE
Gusts 2.0 mph

Today
High -- | Low -- °F
--% Chance of Precip.
Yesterday
High -- | Low -- °F
Precip. -- in
7:24 AM 4:40 PM
Waning Crescent, 12% visible
Pressure 30.26 in
Visibility 10.0 miles
Clouds Scattered Clouds 3700 ft
Overcast 4600 ft
Windchill 27 °F
Dew Point 24 °F
Humidity 87%
Rainfall 0.02 in
Snow Depth Not available.
UV 0 out of 12
Pollen .10 out of 12
Air Quality Not available.
Flu Activity Not available.
METAR KFSW 182215Z AUTO 36003KT 10SM SCT037 OVC046 M02/M04 A3026 RMK AO2

More Conditions Fewer Conditions

Pressure 30.26 in
Visibility 10.0 miles
Clouds Scattered Clouds 3700 ft
Overcast 4600 ft
Windchill 27 °F
Dew Point 24 °F
Humidity 87%
Rainfall 0.02 in
Snow Depth Not available.
UV 0 out of 12
Pollen .10 out of 12
Air Quality Not available.
Flu Activity Not available.
METAR KFSW 182215Z AUTO 36003KT 10SM SCT037 OVC046 M02/M04 A3026 RMK AO2

More Conditions Fewer Conditions

10-Day Weather Forecast

Almanac

Astronomy

Dec. 18, 2014 Rise Set
Actual Time
Civil Twilight
Nautical Twilight
Astronomical Twilight
Moon
Length of Visible Light
Length of Day
Tomorrow will be .
, % of the Moon is Illuminated

Today's Extremes

State Highs State Lows

Community

WunderPhotos

Upload Photos

1,779,010 photos uploaded!

WunderBlogs® & News

Nearby

Air Quality

  Air Quality AQ Index Pollutant
Not available.

Snow Depth

Station Depth Elevation

Earthquake Activity

City Distance Mag. Time & Date
Minimum magnitude displayed is 2.5.

Coastal Water Temperatures

Place Temperature

Nearby Weather Stations